createdAt,value
2023-06-15T00:00:06.459Z,18.91
2023-06-15T00:01:06.453Z,18.97
2023-06-15T00:02:06.449Z,18.84
2023-06-15T00:03:06.530Z,18.94
2023-06-15T00:04:06.536Z,18.91
2023-06-15T00:05:06.399Z,18.92
2023-06-15T00:06:06.376Z,18.95
2023-06-15T00:07:06.385Z,18.86
2023-06-15T00:08:06.350Z,18.84
2023-06-15T00:09:06.354Z,18.74
2023-06-15T00:10:06.329Z,18.83
2023-06-15T00:11:06.319Z,18.83
2023-06-15T00:12:06.303Z,18.74
2023-06-15T00:13:06.295Z,18.70
2023-06-15T00:14:06.298Z,18.67
2023-06-15T00:15:06.292Z,18.68
2023-06-15T00:16:06.286Z,18.64
2023-06-15T00:17:06.247Z,18.73
2023-06-15T00:18:06.286Z,18.74
2023-06-15T00:19:06.239Z,18.70
2023-06-15T00:20:06.224Z,18.67
2023-06-15T00:21:06.214Z,18.70
2023-06-15T00:22:06.197Z,18.61
2023-06-15T00:23:06.202Z,18.61
2023-06-15T00:24:06.185Z,18.59
2023-06-15T00:25:06.215Z,18.59
2023-06-15T00:26:06.162Z,18.54
2023-06-15T00:27:06.130Z,18.52
2023-06-15T00:28:06.126Z,18.57
2023-06-15T00:29:06.135Z,18.55
2023-06-15T00:30:06.124Z,18.59
2023-06-15T00:31:06.089Z,18.67
2023-06-15T00:32:06.202Z,18.58
2023-06-15T00:33:06.233Z,18.55
2023-06-15T00:34:06.063Z,18.50
2023-06-15T00:35:06.051Z,18.39
2023-06-15T00:36:06.030Z,18.42
2023-06-15T00:37:06.014Z,18.37
2023-06-15T00:38:06.051Z,18.34
2023-06-15T00:39:06.015Z,18.34
2023-06-15T00:40:05.996Z,18.39
2023-06-15T00:41:05.967Z,18.42
2023-06-15T00:42:05.967Z,18.44
2023-06-15T00:43:05.943Z,18.46
2023-06-15T00:44:05.955Z,18.33
2023-06-15T00:45:05.943Z,18.28
2023-06-15T00:46:05.921Z,18.31
2023-06-15T00:47:05.948Z,18.21
2023-06-15T00:48:05.958Z,18.15
2023-06-15T00:49:05.881Z,18.25
2023-06-15T00:50:05.917Z,18.22
2023-06-15T00:51:05.871Z,18.13
2023-06-15T00:52:05.843Z,18.19
2023-06-15T00:53:05.836Z,18.15
2023-06-15T00:54:05.826Z,18.19
2023-06-15T00:55:05.893Z,18.02
2023-06-15T00:56:05.801Z,18.09
2023-06-15T00:57:05.803Z,18.13
2023-06-15T00:58:05.777Z,18.04
2023-06-15T00:59:05.761Z,18.07
2023-06-15T01:00:05.772Z,17.92
2023-06-15T01:01:05.757Z,18.03
2023-06-15T01:02:05.748Z,17.94
2023-06-15T01:03:05.942Z,17.99
2023-06-15T01:04:05.756Z,18.02
2023-06-15T01:05:05.712Z,18.02
2023-06-15T01:06:05.689Z,17.97
2023-06-15T01:07:05.721Z,17.97
2023-06-15T01:08:05.691Z,18.00
2023-06-15T01:09:05.664Z,17.92
2023-06-15T01:10:05.668Z,17.89
2023-06-15T01:11:05.655Z,17.89
2023-06-15T01:12:05.626Z,17.91
2023-06-15T01:13:05.608Z,17.81
2023-06-15T01:14:05.622Z,17.85
2023-06-15T01:15:05.604Z,17.85
2023-06-15T01:16:05.593Z,17.82
2023-06-15T01:17:05.584Z,17.81
2023-06-15T01:18:05.582Z,17.91
2023-06-15T01:19:05.551Z,17.91
2023-06-15T01:20:05.564Z,17.81
2023-06-15T01:21:05.556Z,17.92
2023-06-15T01:22:05.513Z,17.88
2023-06-15T01:23:05.504Z,17.81
2023-06-15T01:24:05.550Z,17.92
2023-06-15T01:25:05.582Z,17.82
2023-06-15T01:26:05.472Z,17.78
2023-06-15T01:27:05.484Z,17.84
2023-06-15T01:28:05.453Z,17.79
2023-06-15T01:29:05.471Z,17.85
2023-06-15T01:30:05.495Z,17.73
2023-06-15T01:31:05.459Z,17.81
2023-06-15T01:32:05.431Z,17.63
2023-06-15T01:33:05.410Z,17.62
2023-06-15T01:34:05.377Z,17.64
2023-06-15T01:35:05.396Z,17.59
2023-06-15T01:36:05.360Z,17.62
2023-06-15T01:37:05.358Z,17.69
2023-06-15T01:38:05.371Z,17.55
2023-06-15T01:39:05.343Z,17.59
2023-06-15T01:40:05.313Z,17.46
2023-06-15T01:41:05.311Z,17.53
2023-06-15T01:42:05.297Z,17.47
2023-06-15T01:43:05.317Z,17.47
2023-06-15T01:44:05.295Z,17.43
2023-06-15T01:45:05.264Z,17.46
2023-06-15T01:46:05.281Z,17.54
2023-06-15T01:47:05.277Z,17.47
2023-06-15T01:48:05.303Z,17.36
2023-06-15T01:49:05.245Z,17.48
2023-06-15T01:50:05.235Z,17.50
2023-06-15T01:51:05.224Z,17.51
2023-06-15T01:52:05.184Z,17.64
2023-06-15T01:53:05.188Z,17.53
2023-06-15T01:54:05.165Z,17.53
2023-06-15T01:55:05.680Z,17.43
2023-06-15T01:56:05.171Z,17.53
2023-06-15T01:57:05.132Z,17.40
2023-06-15T01:58:05.125Z,17.40
2023-06-15T01:59:05.132Z,17.43
2023-06-15T02:00:05.101Z,17.41
2023-06-15T02:01:05.129Z,17.35
2023-06-15T02:02:05.169Z,17.40
2023-06-15T02:03:05.110Z,17.28
2023-06-15T02:04:05.051Z,17.41
2023-06-15T02:05:05.046Z,17.35
2023-06-15T02:06:05.036Z,17.35
2023-06-15T02:07:05.026Z,17.32
2023-06-15T02:08:05.039Z,17.46
2023-06-15T02:09:05.015Z,17.40
2023-06-15T02:10:04.986Z,17.28
2023-06-15T02:11:04.977Z,17.35
2023-06-15T02:12:04.962Z,17.17
2023-06-15T02:13:04.964Z,17.18
2023-06-15T02:14:04.961Z,17.08
2023-06-15T02:15:04.964Z,17.20
2023-06-15T02:16:04.939Z,17.23
2023-06-15T02:17:04.929Z,17.08
2023-06-15T02:18:04.926Z,17.13
2023-06-15T02:19:04.909Z,17.17
2023-06-15T02:20:04.899Z,17.07
2023-06-15T02:21:04.861Z,17.13
2023-06-15T02:22:04.856Z,17.04
2023-06-15T02:23:04.842Z,16.99
2023-06-15T02:24:04.866Z,17.03
2023-06-15T02:25:04.847Z,17.06
2023-06-15T02:26:04.819Z,17.08
2023-06-15T02:27:04.795Z,17.07
2023-06-15T02:28:04.784Z,17.10
2023-06-15T02:29:04.773Z,17.07
2023-06-15T02:30:04.773Z,16.98
2023-06-15T02:31:04.808Z,17.10
2023-06-15T02:32:04.742Z,17.00
2023-06-15T02:33:04.781Z,17.04
2023-06-15T02:34:04.757Z,17.06
2023-06-15T02:35:04.712Z,16.99
2023-06-15T02:36:04.726Z,16.99
2023-06-15T02:37:04.693Z,17.07
2023-06-15T02:38:04.666Z,16.95
2023-06-15T02:39:04.660Z,16.92
2023-06-15T02:40:04.653Z,16.93
2023-06-15T02:41:04.640Z,16.96
2023-06-15T02:42:04.642Z,16.95
2023-06-15T02:43:04.644Z,16.93
2023-06-15T02:44:04.603Z,16.88
2023-06-15T02:45:04.751Z,16.85
2023-06-15T02:46:04.578Z,16.88
2023-06-15T02:47:04.591Z,16.93
2023-06-15T02:48:04.609Z,16.93
2023-06-15T02:49:04.562Z,16.88
2023-06-15T02:50:04.570Z,16.80
2023-06-15T02:51:04.527Z,16.83
2023-06-15T02:52:04.515Z,16.88
2023-06-15T02:53:04.530Z,16.86
2023-06-15T02:54:04.488Z,16.75
2023-06-15T02:55:04.481Z,16.83
2023-06-15T02:56:07.802Z,16.90
2023-06-15T02:57:04.458Z,16.75
2023-06-15T02:58:04.462Z,16.78
2023-06-15T02:59:04.462Z,16.74
2023-06-15T03:00:04.426Z,16.89
2023-06-15T03:01:04.421Z,16.83
2023-06-15T03:02:04.451Z,16.80
2023-06-15T03:03:04.484Z,16.83
2023-06-15T03:04:04.379Z,16.67
2023-06-15T03:05:04.399Z,16.77
2023-06-15T03:06:04.381Z,16.60
2023-06-15T03:07:04.356Z,16.67
2023-06-15T03:08:04.341Z,16.63
2023-06-15T03:09:04.326Z,16.62
2023-06-15T03:10:04.314Z,16.71
2023-06-15T03:11:04.352Z,16.60
2023-06-15T03:12:04.300Z,16.59
2023-06-15T03:13:04.279Z,16.56
2023-06-15T03:14:04.279Z,16.55
2023-06-15T03:15:04.267Z,16.60
2023-06-15T03:16:04.241Z,16.65
2023-06-15T03:17:04.279Z,16.67
2023-06-15T03:18:04.296Z,16.71
2023-06-15T03:19:04.230Z,16.65
2023-06-15T03:20:04.210Z,16.60
2023-06-15T03:21:04.221Z,16.52
2023-06-15T03:22:04.184Z,16.65
2023-06-15T03:23:04.188Z,16.59
2023-06-15T03:24:04.177Z,16.53
2023-06-15T03:25:04.147Z,16.56
2023-06-15T03:26:04.142Z,16.58
2023-06-15T03:27:04.131Z,16.50
2023-06-15T03:28:04.108Z,16.45
2023-06-15T03:29:04.142Z,16.50
2023-06-15T03:30:04.085Z,16.44
2023-06-15T03:31:04.082Z,16.40
2023-06-15T03:32:04.083Z,16.25
2023-06-15T03:33:04.130Z,16.33
2023-06-15T03:34:04.058Z,16.41
2023-06-15T03:35:04.073Z,16.30
2023-06-15T03:36:04.033Z,16.31
2023-06-15T03:37:04.024Z,16.35
2023-06-15T03:38:04.000Z,16.37
2023-06-15T03:39:04.007Z,16.40
2023-06-15T03:40:03.976Z,16.34
2023-06-15T03:41:04.001Z,16.37
2023-06-15T03:42:03.970Z,16.34
2023-06-15T03:43:03.971Z,16.41
2023-06-15T03:44:03.948Z,16.35
2023-06-15T03:45:03.946Z,16.37
2023-06-15T03:46:03.953Z,16.37
2023-06-15T03:47:03.907Z,16.31
2023-06-15T03:48:03.976Z,16.31
2023-06-15T03:49:03.878Z,16.40
2023-06-15T03:50:03.869Z,16.34
2023-06-15T03:51:03.878Z,16.34
2023-06-15T03:52:03.864Z,16.38
2023-06-15T03:53:03.835Z,16.30
2023-06-15T03:54:03.840Z,16.27
2023-06-15T03:55:03.851Z,16.30
2023-06-15T03:56:03.816Z,16.27
2023-06-15T03:57:03.798Z,16.33
2023-06-15T03:58:03.825Z,16.31
2023-06-15T03:59:03.764Z,16.31
2023-06-15T04:00:03.775Z,16.33
2023-06-15T04:01:03.737Z,16.31
2023-06-15T04:02:03.735Z,16.31
2023-06-15T04:03:03.777Z,16.35
2023-06-15T04:04:03.817Z,16.31
2023-06-15T04:05:03.727Z,16.42
2023-06-15T04:06:03.684Z,16.49
2023-06-15T04:07:03.686Z,16.45
2023-06-15T04:08:03.658Z,16.45
2023-06-15T04:09:03.670Z,16.49
2023-06-15T04:10:03.649Z,16.49
2023-06-15T04:11:03.628Z,16.44
2023-06-15T04:12:03.620Z,16.48
2023-06-15T04:13:03.675Z,16.41
2023-06-15T04:14:03.596Z,16.48
2023-06-15T04:15:03.611Z,16.52
2023-06-15T04:16:03.585Z,16.45
2023-06-15T04:17:03.584Z,16.45
2023-06-15T04:18:03.612Z,16.52
2023-06-15T04:19:03.536Z,16.60
2023-06-15T04:20:03.539Z,16.58
2023-06-15T04:21:03.559Z,16.53
2023-06-15T04:22:03.500Z,16.49
2023-06-15T04:23:03.529Z,16.68
2023-06-15T04:24:03.520Z,16.59
2023-06-15T04:25:03.465Z,16.55
2023-06-15T04:26:03.459Z,16.65
2023-06-15T04:27:03.470Z,16.74
2023-06-15T04:28:03.438Z,16.67
2023-06-15T04:29:03.438Z,16.63
2023-06-15T04:30:03.422Z,16.71
2023-06-15T04:31:03.396Z,16.70
2023-06-15T04:32:03.390Z,16.75
2023-06-15T04:33:03.447Z,16.70
2023-06-15T04:34:03.375Z,16.80
2023-06-15T04:35:03.385Z,16.85
2023-06-15T04:36:03.345Z,16.86
2023-06-15T04:37:03.340Z,16.86
2023-06-15T04:38:03.327Z,16.92
2023-06-15T04:39:03.357Z,16.98
2023-06-15T04:40:03.307Z,16.98
2023-06-15T04:41:03.304Z,16.99
2023-06-15T04:42:03.283Z,16.99
2023-06-15T04:43:03.265Z,17.13
2023-06-15T04:44:03.269Z,17.03
2023-06-15T04:45:03.266Z,17.14
2023-06-15T04:46:03.249Z,17.18
2023-06-15T04:47:03.304Z,17.23
2023-06-15T04:48:03.285Z,17.18
2023-06-15T04:49:03.199Z,17.25
2023-06-15T04:50:03.203Z,17.28
2023-06-15T04:51:03.216Z,17.35
2023-06-15T04:52:03.169Z,17.25
2023-06-15T04:53:03.170Z,17.33
2023-06-15T04:54:03.162Z,17.33
2023-06-15T04:55:03.157Z,17.38
2023-06-15T04:56:03.136Z,17.38
2023-06-15T04:57:03.108Z,17.32
2023-06-15T04:58:03.142Z,17.33
2023-06-15T04:59:03.088Z,17.26
2023-06-15T05:00:03.076Z,17.32
2023-06-15T05:01:03.062Z,17.41
2023-06-15T05:02:03.117Z,17.43
2023-06-15T05:03:03.076Z,17.51
2023-06-15T05:04:03.066Z,17.59
2023-06-15T05:05:03.015Z,17.53
2023-06-15T05:06:03.023Z,17.55
2023-06-15T05:07:03.003Z,17.50
2023-06-15T05:08:02.982Z,17.57
2023-06-15T05:09:02.967Z,17.51
2023-06-15T05:10:02.973Z,17.67
2023-06-15T05:11:02.983Z,17.71
2023-06-15T05:12:02.940Z,17.66
2023-06-15T05:13:02.927Z,17.59
2023-06-15T05:14:02.919Z,17.67
2023-06-15T05:15:02.931Z,17.67
2023-06-15T05:16:02.924Z,17.71
2023-06-15T05:17:02.879Z,17.70
2023-06-15T05:18:02.915Z,17.74
2023-06-15T05:19:02.863Z,17.73
2023-06-15T05:20:02.853Z,17.87
2023-06-15T05:21:02.872Z,17.79
2023-06-15T05:22:02.863Z,17.79
2023-06-15T05:23:02.814Z,17.79
2023-06-15T05:24:02.863Z,17.88
2023-06-15T05:25:02.799Z,17.85
2023-06-15T05:26:03.474Z,17.97
2023-06-15T05:27:02.799Z,17.92
2023-06-15T05:28:02.783Z,18.04
2023-06-15T05:29:02.747Z,18.03
2023-06-15T05:30:02.739Z,18.13
2023-06-15T05:31:02.723Z,18.07
2023-06-15T05:32:02.742Z,18.10
2023-06-15T05:33:02.761Z,18.21
2023-06-15T05:34:02.703Z,18.37
2023-06-15T05:35:02.683Z,18.42
2023-06-15T05:36:11.918Z,18.54
2023-06-15T05:37:03.698Z,18.70
2023-06-15T05:38:02.655Z,18.77
2023-06-15T05:39:02.638Z,18.77
2023-06-15T05:40:02.636Z,18.79
2023-06-15T05:41:02.650Z,19.02
2023-06-15T05:42:02.655Z,19.14
2023-06-15T05:43:02.785Z,19.17
2023-06-15T05:44:02.581Z,19.24
2023-06-15T05:45:02.574Z,19.43
2023-06-15T05:46:02.563Z,19.35
2023-06-15T05:47:02.548Z,19.51
2023-06-15T05:48:02.549Z,19.39
2023-06-15T05:49:02.553Z,19.48
2023-06-15T05:50:02.517Z,19.40
2023-06-15T05:51:02.559Z,19.48
2023-06-15T05:52:02.504Z,19.63
2023-06-15T05:53:02.511Z,19.60
2023-06-15T05:54:02.491Z,19.73
2023-06-15T05:55:02.486Z,19.75
2023-06-15T05:57:02.435Z,19.87
2023-06-15T05:58:02.428Z,19.80
2023-06-15T05:59:02.427Z,19.94
2023-06-15T06:00:02.433Z,20.06
2023-06-15T06:01:02.415Z,20.16
2023-06-15T06:02:02.649Z,20.13
2023-06-15T06:03:02.454Z,20.10
2023-06-15T06:04:02.360Z,20.31
2023-06-15T06:05:02.344Z,20.59
2023-06-15T06:06:02.415Z,20.66
2023-06-15T06:07:02.351Z,20.69
2023-06-15T06:08:02.320Z,20.84
2023-06-15T06:09:02.307Z,20.81
2023-06-15T06:10:02.297Z,20.95
2023-06-15T06:11:02.292Z,20.93
2023-06-15T06:12:02.269Z,21.16
2023-06-15T06:13:02.279Z,21.17
2023-06-15T06:14:02.261Z,21.29
2023-06-15T06:15:02.274Z,21.16
2023-06-15T06:16:02.225Z,21.21
2023-06-15T06:17:02.214Z,21.24
2023-06-15T06:18:09.090Z,21.38
2023-06-15T06:19:03.214Z,21.27
2023-06-15T06:20:02.211Z,21.13
2023-06-15T06:21:02.176Z,21.04
2023-06-15T06:22:02.155Z,20.83
2023-06-15T06:23:02.162Z,20.68
2023-06-15T06:24:02.200Z,20.74
2023-06-15T06:25:02.144Z,20.74
2023-06-15T06:26:02.118Z,20.69
2023-06-15T06:27:02.100Z,20.74
2023-06-15T06:28:02.102Z,20.61
2023-06-15T06:29:02.082Z,20.59
2023-06-15T06:30:02.107Z,20.72
2023-06-15T06:31:02.095Z,20.77
2023-06-15T06:32:02.059Z,20.81
2023-06-15T06:33:02.327Z,20.79
2023-06-15T06:34:02.025Z,20.77
2023-06-15T06:35:02.009Z,20.87
2023-06-15T06:36:02.019Z,20.96
2023-06-15T06:37:02.009Z,21.11
2023-06-15T06:38:01.992Z,21.44
2023-06-15T06:39:03.239Z,21.59
2023-06-15T06:40:01.967Z,21.61
2023-06-15T06:41:01.949Z,21.90
2023-06-15T06:42:01.943Z,21.98
2023-06-15T06:43:01.957Z,21.82
2023-06-15T06:44:01.923Z,21.56
2023-06-15T06:45:01.915Z,21.51
2023-06-15T06:46:01.896Z,21.63
2023-06-15T06:47:01.953Z,21.82
2023-06-15T06:48:01.931Z,22.12
2023-06-15T06:49:01.885Z,22.35
2023-06-15T06:50:01.862Z,22.65
2023-06-15T06:51:01.836Z,22.82
2023-06-15T06:52:01.843Z,22.86
2023-06-15T06:53:01.815Z,22.92
2023-06-15T06:54:01.807Z,22.83
2023-06-15T06:55:01.808Z,23.12
2023-06-15T06:56:01.795Z,23.20
2023-06-15T06:57:01.819Z,23.50
2023-06-15T06:58:01.775Z,23.85
2023-06-15T06:59:01.749Z,24.04
2023-06-15T07:00:01.751Z,24.38
2023-06-15T07:01:01.743Z,24.60
2023-06-15T07:02:01.754Z,25.12
2023-06-15T07:03:01.803Z,25.27
2023-06-15T07:04:01.735Z,25.39
2023-06-15T07:05:01.693Z,25.56
2023-06-15T07:06:01.675Z,25.68
2023-06-15T07:07:01.654Z,25.79
2023-06-15T07:08:01.650Z,25.86
2023-06-15T07:09:01.678Z,26.05
2023-06-15T07:10:01.628Z,26.06
2023-06-15T07:11:01.614Z,26.11
2023-06-15T07:12:01.723Z,26.25
2023-06-15T07:13:01.601Z,26.28
2023-06-15T07:14:01.592Z,26.42
2023-06-15T07:15:01.729Z,26.32
2023-06-15T07:16:01.563Z,26.35
2023-06-15T07:17:01.553Z,26.35
2023-06-15T07:18:01.583Z,26.12
2023-06-15T07:19:01.562Z,25.69
2023-06-15T07:20:01.544Z,25.32
2023-06-15T07:21:01.504Z,24.95
2023-06-15T07:22:01.521Z,24.35
2023-06-15T07:23:01.495Z,24.10
2023-06-15T07:24:01.509Z,23.98
2023-06-15T07:25:01.463Z,24.04
2023-06-15T07:26:01.470Z,23.94
2023-06-15T07:27:01.443Z,23.82
2023-06-15T07:28:01.434Z,23.79
2023-06-15T07:29:01.420Z,23.79
2023-06-15T07:30:01.415Z,23.58
2023-06-15T07:31:01.397Z,23.61
2023-06-15T07:32:01.451Z,23.46
2023-06-15T07:33:01.424Z,23.50
2023-06-15T07:34:01.369Z,23.26
2023-06-15T07:35:01.425Z,23.04
2023-06-15T07:36:01.346Z,22.89
2023-06-15T07:37:01.510Z,22.97
2023-06-15T07:38:01.344Z,22.92
2023-06-15T07:39:01.317Z,23.09
2023-06-15T07:40:01.301Z,23.08
2023-06-15T07:41:01.333Z,23.22
2023-06-15T07:42:01.284Z,23.24
2023-06-15T07:43:01.306Z,23.26
2023-06-15T07:44:01.264Z,23.07
2023-06-15T07:45:01.246Z,23.07
2023-06-15T07:46:01.245Z,23.05
2023-06-15T07:47:01.229Z,23.11
2023-06-15T07:48:01.288Z,23.23
2023-06-15T07:49:01.218Z,23.53
2023-06-15T07:50:01.209Z,23.68
2023-06-15T07:51:01.332Z,23.72
2023-06-15T07:52:09.526Z,23.85
2023-06-15T07:53:02.179Z,23.83
2023-06-15T07:54:01.183Z,23.95
2023-06-15T07:55:01.169Z,23.95
2023-06-15T07:56:01.143Z,23.90
2023-06-15T07:57:01.123Z,24.16
2023-06-15T07:58:01.119Z,24.20
2023-06-15T07:59:01.156Z,24.16
2023-06-15T08:00:01.126Z,24.08
2023-06-15T08:01:01.079Z,23.90
2023-06-15T08:02:01.067Z,23.82
2023-06-15T08:03:01.205Z,23.90
2023-06-15T08:04:01.077Z,23.89
2023-06-15T08:05:01.083Z,23.83
2023-06-15T08:06:01.030Z,23.75
2023-06-15T08:07:01.309Z,23.85
2023-06-15T08:08:01.004Z,23.68
2023-06-15T08:09:01.026Z,23.68
2023-06-15T08:10:00.994Z,23.62
2023-06-15T08:11:01.002Z,23.86
2023-06-15T08:12:00.980Z,23.83
2023-06-15T08:13:00.964Z,24.04
2023-06-15T08:14:00.949Z,24.20
2023-06-15T08:15:00.937Z,24.37
2023-06-15T08:16:00.970Z,24.39
2023-06-15T08:17:00.909Z,24.50
2023-06-15T08:18:00.926Z,24.59
2023-06-15T08:19:00.887Z,24.69
2023-06-15T08:20:00.881Z,25.06
2023-06-15T08:21:00.866Z,25.15
2023-06-15T08:22:00.876Z,25.47
2023-06-15T08:23:00.876Z,25.30
2023-06-15T08:24:00.903Z,25.09
2023-06-15T08:25:00.829Z,25.06
2023-06-15T08:26:00.818Z,25.05
2023-06-15T08:27:00.807Z,25.12
2023-06-15T08:28:00.851Z,25.06
2023-06-15T08:29:13.609Z,24.82
2023-06-15T08:30:01.778Z,24.67
2023-06-15T08:31:00.764Z,24.68
2023-06-15T08:32:00.749Z,24.69
2023-06-15T08:33:00.759Z,24.50
2023-06-15T08:34:00.740Z,24.57
2023-06-15T08:35:00.732Z,24.41
2023-06-15T08:36:00.702Z,24.59
2023-06-15T08:37:00.698Z,24.90
2023-06-15T08:38:00.692Z,25.07
2023-06-15T08:39:00.735Z,25.17
2023-06-15T08:40:00.660Z,25.30
2023-06-15T08:41:00.724Z,25.50
2023-06-15T08:42:00.641Z,25.71
2023-06-15T08:43:00.636Z,25.79
2023-06-15T08:44:00.623Z,26.06
2023-06-15T08:45:00.628Z,26.18
2023-06-15T08:46:00.596Z,26.29
2023-06-15T08:47:00.589Z,26.50
2023-06-15T08:48:00.589Z,26.65
2023-06-15T08:49:00.567Z,26.69
2023-06-15T08:50:00.555Z,26.65
2023-06-15T08:51:00.571Z,26.61
2023-06-15T08:52:00.532Z,26.59
2023-06-15T08:53:00.526Z,26.58
2023-06-15T08:54:00.514Z,26.59
2023-06-15T08:55:00.535Z,26.58
2023-06-15T08:56:00.497Z,26.76
2023-06-15T08:57:00.533Z,26.80
2023-06-15T08:58:00.465Z,26.99
2023-06-15T08:59:00.468Z,27.06
2023-06-15T09:00:00.450Z,27.26
2023-06-15T09:01:00.449Z,27.29
2023-06-15T09:02:00.438Z,27.42
2023-06-15T09:03:00.493Z,27.57
2023-06-15T09:04:00.446Z,27.54
2023-06-15T09:05:00.408Z,27.61
2023-06-15T09:06:00.381Z,27.84
2023-06-15T09:07:00.396Z,27.62
2023-06-15T09:08:00.358Z,27.38
2023-06-15T09:09:00.364Z,26.99
2023-06-15T09:10:00.340Z,26.89
2023-06-15T09:11:00.357Z,26.69
2023-06-15T09:12:00.323Z,26.58
2023-06-15T09:13:00.315Z,26.58
2023-06-15T09:14:00.334Z,26.67
2023-06-15T09:15:00.289Z,26.84
2023-06-15T09:16:00.283Z,27.01
2023-06-15T09:17:00.271Z,27.10
2023-06-15T09:18:00.327Z,27.13
2023-06-15T09:19:00.262Z,27.14
2023-06-15T09:20:00.235Z,27.31
2023-06-15T09:21:00.223Z,27.38
2023-06-15T09:22:00.212Z,27.57
2023-06-15T09:23:00.274Z,27.77
2023-06-15T09:24:00.305Z,27.88
2023-06-15T09:25:00.206Z,28.11
2023-06-15T09:26:00.169Z,28.21
2023-06-15T09:27:00.183Z,28.53
2023-06-15T09:28:00.181Z,28.75
2023-06-15T09:29:00.164Z,28.93
2023-06-15T09:30:00.169Z,29.11
2023-06-15T09:31:00.132Z,29.35
2023-06-15T09:32:00.126Z,29.44
2023-06-15T09:33:00.132Z,29.57
2023-06-15T09:34:00.139Z,29.74
2023-06-15T09:35:00.079Z,29.90
2023-06-15T09:36:00.125Z,29.99
2023-06-15T09:37:00.054Z,30.03
2023-06-15T09:38:00.042Z,30.18
2023-06-15T09:39:00.036Z,30.16
2023-06-15T09:40:00.018Z,30.11
2023-06-15T09:41:00.012Z,30.02
2023-06-15T09:42:00.411Z,29.89
2023-06-15T09:43:00.026Z,29.74
2023-06-15T09:43:59.976Z,29.93
2023-06-15T09:44:59.969Z,29.82
2023-06-15T09:45:59.952Z,29.94
2023-06-15T09:47:00.889Z,29.72
2023-06-15T09:47:59.994Z,29.37
2023-06-15T09:48:59.939Z,29.13
2023-06-15T09:49:59.916Z,28.56
2023-06-15T09:50:59.910Z,28.06
2023-06-15T09:51:59.893Z,27.39
2023-06-15T09:52:59.884Z,27.01
2023-06-15T09:53:59.895Z,26.64
2023-06-15T09:54:59.866Z,26.61
2023-06-15T09:55:59.857Z,26.43
2023-06-15T09:56:59.842Z,26.50
2023-06-15T09:57:59.836Z,26.46
2023-06-15T09:58:59.924Z,26.52
2023-06-15T09:59:59.807Z,26.59
2023-06-15T10:00:59.798Z,26.44
2023-06-15T10:01:59.797Z,26.42
2023-06-15T10:02:59.845Z,26.39
2023-06-15T10:03:59.785Z,26.40
2023-06-15T10:04:59.775Z,26.35
2023-06-15T10:05:59.747Z,26.32
2023-06-15T10:06:59.736Z,26.35
2023-06-15T10:07:59.718Z,26.20
2023-06-15T10:08:59.713Z,26.43
2023-06-15T10:09:59.698Z,26.77
2023-06-15T10:10:59.710Z,26.91
2023-06-15T10:11:59.680Z,26.92
2023-06-15T10:12:59.668Z,26.67
2023-06-15T10:13:59.655Z,26.52
2023-06-15T10:14:59.686Z,26.37
2023-06-15T10:15:59.633Z,26.22
2023-06-15T10:16:59.661Z,26.24
2023-06-15T10:17:59.629Z,26.18
2023-06-15T10:18:59.604Z,26.18
2023-06-15T10:19:59.589Z,26.28
2023-06-15T10:20:59.590Z,26.49
2023-06-15T10:21:59.570Z,26.83
2023-06-15T10:22:59.626Z,26.94
2023-06-15T10:23:59.582Z,27.13
2023-06-15T10:24:59.542Z,27.10
2023-06-15T10:25:59.529Z,27.21
2023-06-15T10:26:59.522Z,27.50
2023-06-15T10:27:59.505Z,27.73
2023-06-15T10:28:59.522Z,27.95
2023-06-15T10:29:59.483Z,28.01
2023-06-15T10:30:59.575Z,28.04
2023-06-15T10:31:59.466Z,28.10
2023-06-15T10:32:59.474Z,28.10
2023-06-15T10:33:59.450Z,28.17
2023-06-15T10:34:59.473Z,28.17
2023-06-15T10:35:59.424Z,28.28
2023-06-15T10:36:59.424Z,28.22
2023-06-15T10:37:59.401Z,28.22
2023-06-15T10:38:59.394Z,28.36
2023-06-15T10:39:59.381Z,28.68
2023-06-15T10:40:59.409Z,28.85
2023-06-15T10:41:59.363Z,29.04
2023-06-15T10:42:59.354Z,29.18
2023-06-15T10:43:59.340Z,29.37
2023-06-15T10:44:59.333Z,29.52
2023-06-15T10:45:59.334Z,29.41
2023-06-15T10:46:59.340Z,29.18
2023-06-15T10:47:59.323Z,28.95
2023-06-15T10:48:59.292Z,28.91
2023-06-15T10:50:00.764Z,28.77
2023-06-15T10:50:59.289Z,28.72
2023-06-15T10:51:59.276Z,28.53
2023-06-15T10:52:59.254Z,28.54
2023-06-15T10:53:59.237Z,28.29
2023-06-15T10:54:59.238Z,28.11
2023-06-15T10:55:59.264Z,27.88
2023-06-15T10:56:59.206Z,27.86
2023-06-15T10:57:59.199Z,27.89
2023-06-15T10:58:59.194Z,27.69
2023-06-15T10:59:59.258Z,27.47
2023-06-15T11:00:59.203Z,27.36
2023-06-15T11:01:59.151Z,27.46
2023-06-15T11:02:59.193Z,27.51
2023-06-15T11:03:59.183Z,27.70
2023-06-15T11:04:59.163Z,27.79
2023-06-15T11:05:59.112Z,27.74
2023-06-15T11:07:01.505Z,27.79
2023-06-15T11:07:59.091Z,27.85
2023-06-15T11:08:59.081Z,27.96
2023-06-15T11:09:59.069Z,28.09
2023-06-15T11:10:59.074Z,28.17
2023-06-15T11:11:59.051Z,27.98
2023-06-15T11:12:59.054Z,27.96
2023-06-15T11:13:59.032Z,27.77
2023-06-15T11:14:59.022Z,27.61
2023-06-15T11:15:59.008Z,27.74
2023-06-15T11:16:59.018Z,27.85
2023-06-15T11:17:59.080Z,28.16
2023-06-15T11:18:59.009Z,28.17
2023-06-15T11:19:58.964Z,28.43
2023-06-15T11:20:58.962Z,28.53
2023-06-15T11:21:58.961Z,28.54
2023-06-15T11:22:58.935Z,28.65
2023-06-15T11:23:59.061Z,28.70
2023-06-15T11:24:58.921Z,28.75
2023-06-15T11:25:58.910Z,28.80
2023-06-15T11:26:58.916Z,28.77
2023-06-15T11:27:58.907Z,28.75
2023-06-15T11:28:58.877Z,28.62
2023-06-15T11:29:58.860Z,28.59
2023-06-15T11:30:58.860Z,28.58
2023-06-15T11:31:58.847Z,28.54
2023-06-15T11:32:58.891Z,28.62
2023-06-15T11:33:58.821Z,28.56
2023-06-15T11:34:58.831Z,28.56
2023-06-15T11:36:01.510Z,28.44
2023-06-15T11:36:58.811Z,28.36
2023-06-15T11:37:58.774Z,28.47
2023-06-15T11:38:58.770Z,28.48
2023-06-15T11:39:58.757Z,28.53
2023-06-15T11:40:58.746Z,28.62
2023-06-15T11:41:58.780Z,28.80
2023-06-15T11:42:58.729Z,28.65
2023-06-15T11:43:58.720Z,28.77
2023-06-15T11:44:58.710Z,28.69
2023-06-15T11:45:58.713Z,28.80
2023-06-15T11:46:58.685Z,28.84
2023-06-15T11:47:58.748Z,29.13
2023-06-15T11:48:58.778Z,29.11
2023-06-15T11:49:58.646Z,29.15
2023-06-15T11:50:58.667Z,28.85
2023-06-15T11:51:58.640Z,28.62
2023-06-15T11:52:58.616Z,28.38
2023-06-15T11:53:58.661Z,28.07
2023-06-15T11:54:59.397Z,27.80
2023-06-15T11:55:58.583Z,27.58
2023-06-15T11:56:58.581Z,27.46
2023-06-15T11:57:58.561Z,27.38
2023-06-15T11:58:58.583Z,27.36
2023-06-15T11:59:58.538Z,27.20
2023-06-15T12:00:58.548Z,27.10
2023-06-15T12:01:58.526Z,27.29
2023-06-15T12:02:58.529Z,27.26
2023-06-15T12:04:05.968Z,27.33
2023-06-15T12:04:59.562Z,27.33
2023-06-15T12:05:58.517Z,27.29
2023-06-15T12:06:58.560Z,27.16
2023-06-15T12:07:58.457Z,27.29
2023-06-15T12:08:58.509Z,27.39
2023-06-15T12:09:58.492Z,27.64
2023-06-15T12:10:58.423Z,27.84
2023-06-15T12:11:58.431Z,27.95
2023-06-15T12:12:58.403Z,28.06
2023-06-15T12:13:58.395Z,28.23
2023-06-15T12:14:58.385Z,28.35
2023-06-15T12:15:58.510Z,28.47
2023-06-15T12:16:58.359Z,28.48
2023-06-15T12:17:58.398Z,28.48
2023-06-15T12:18:58.334Z,28.50
2023-06-15T12:19:58.329Z,28.43
2023-06-15T12:20:58.338Z,28.40
2023-06-15T12:21:58.305Z,28.41
2023-06-15T12:22:58.318Z,28.56
2023-06-15T12:23:58.291Z,28.58
2023-06-15T12:24:58.272Z,28.78
2023-06-15T12:25:58.288Z,28.85
2023-06-15T12:26:58.261Z,28.97
2023-06-15T12:27:58.242Z,28.93
2023-06-15T12:28:58.236Z,28.72
2023-06-15T12:29:58.219Z,28.73
2023-06-15T12:30:58.205Z,28.62
2023-06-15T12:31:58.225Z,28.75
2023-06-15T12:32:58.232Z,28.69
2023-06-15T12:33:58.263Z,28.73
2023-06-15T12:34:58.162Z,28.66
2023-06-15T12:35:58.156Z,28.63
2023-06-15T12:36:58.148Z,28.59
2023-06-15T12:37:58.225Z,28.33
2023-06-15T12:38:58.164Z,28.41
2023-06-15T12:39:58.111Z,28.48
2023-06-15T12:40:58.134Z,28.41
2023-06-15T12:41:58.089Z,28.44
2023-06-15T12:42:58.077Z,28.41
2023-06-15T12:43:58.067Z,28.53
2023-06-15T12:44:58.058Z,28.56
2023-06-15T12:45:58.166Z,28.51
2023-06-15T12:46:58.043Z,28.66
2023-06-15T12:47:58.103Z,28.70
2023-06-15T12:48:58.017Z,28.87
2023-06-15T12:49:58.009Z,28.95
2023-06-15T12:50:57.995Z,29.20
2023-06-15T12:51:58.021Z,29.33
2023-06-15T12:52:57.970Z,29.38